createdAt,value
2022-12-03T00:00:54.837Z,102148.91
2022-12-03T00:05:56.890Z,102148.88
2022-12-03T00:10:58.878Z,102145.47
2022-12-03T00:16:01.046Z,102147.97
2022-12-03T00:21:03.130Z,102146.19
2022-12-03T00:26:05.242Z,102150.44
2022-12-03T00:31:07.329Z,102154.69
2022-12-03T00:36:09.541Z,102114.25
2022-12-03T00:41:12.057Z,102155.53
2022-12-03T00:46:18.253Z,102151.31
2022-12-03T00:51:23.003Z,102156.44
2022-12-03T00:56:25.171Z,102148.59
2022-12-03T01:01:27.263Z,102153.78
2022-12-03T01:06:29.282Z,102156.31
2022-12-03T01:11:41.471Z,102164.03
2022-12-03T01:16:44.752Z,102165.63
2022-12-03T01:21:49.808Z,102164.72
2022-12-03T01:26:51.866Z,102162.88
2022-12-03T01:32:12.573Z,102175.59
2022-12-03T01:37:14.578Z,102175.75
2022-12-03T01:42:29.096Z,102172.22
2022-12-03T01:47:36.804Z,102170.38
2022-12-03T01:52:39.591Z,102169.41
2022-12-03T01:57:47.834Z,102169.38
2022-12-03T02:02:53.602Z,102170.16
2022-12-03T02:07:56.496Z,102176.91
2022-12-03T02:13:03.148Z,102180.38
2022-12-03T02:18:05.538Z,102193.13
2022-12-03T02:23:43.356Z,102181.28
2022-12-03T02:28:45.351Z,102188.06
2022-12-03T02:33:47.358Z,102186.38
2022-12-03T02:38:50.831Z,102181.97
2022-12-03T02:43:52.834Z,102154.38
2022-12-03T02:48:54.927Z,102193.97
2022-12-03T02:53:57.523Z,102196.56
2022-12-03T02:59:03.320Z,102187.22
2022-12-03T03:04:06.607Z,102193.19
2022-12-03T03:09:08.608Z,102200.75
2022-12-03T03:14:10.633Z,102200.75
2022-12-03T03:19:12.687Z,102206.69
2022-12-03T03:24:14.667Z,102208.38
2022-12-03T03:29:17.365Z,102207.47
2022-12-03T03:34:20.645Z,102204.81
2022-12-03T03:39:22.689Z,102210.00
2022-12-03T03:44:24.817Z,102212.47
2022-12-03T03:49:27.631Z,102214.97
2022-12-03T03:54:29.852Z,102226.97
2022-12-03T03:59:32.302Z,102214.94
2022-12-03T04:04:37.755Z,102215.81
2022-12-03T04:09:39.865Z,102220.06
2022-12-03T04:14:41.819Z,102221.72
2022-12-03T04:19:43.778Z,102231.91
2022-12-03T04:24:45.810Z,102238.69
2022-12-03T04:29:47.842Z,102246.38
2022-12-03T04:35:19.131Z,102240.38
2022-12-03T04:40:39.965Z,102244.34
2022-12-03T04:45:41.990Z,102253.66
2022-12-03T04:50:44.112Z,102268.16
2022-12-03T04:55:46.219Z,102224.38
2022-12-03T05:00:48.301Z,102268.16
2022-12-03T05:05:50.326Z,102281.72
2022-12-03T05:10:52.392Z,102283.34
2022-12-03T05:15:54.419Z,102289.34
2022-12-03T05:20:56.477Z,102271.38
2022-12-03T05:25:58.496Z,102295.53
2022-12-03T05:31:00.499Z,102297.25
2022-12-03T05:36:02.626Z,102310.09
2022-12-03T05:41:25.132Z,102303.09
2022-12-03T05:46:27.291Z,102310.97
2022-12-03T05:51:30.250Z,102304.22
2022-12-03T05:56:32.392Z,102306.94
2022-12-03T06:01:34.651Z,102273.50
2022-12-03T06:06:36.621Z,102304.78
2022-12-03T06:11:40.068Z,102300.81
2022-12-03T06:16:42.073Z,102304.66
2022-12-03T06:21:44.282Z,102307.44
2022-12-03T06:26:46.340Z,102305.16
2022-12-03T06:31:49.330Z,102269.13
2022-12-03T06:36:51.367Z,102298.59
2022-12-03T06:41:53.475Z,102302.31
2022-12-03T06:46:55.555Z,102298.31
2022-12-03T06:51:57.551Z,102297.72
2022-12-03T06:57:00.366Z,102294.41
2022-12-03T07:02:02.408Z,102292.00
2022-12-03T07:07:04.484Z,102293.09
2022-12-03T07:12:07.656Z,102292.47
2022-12-03T07:17:09.784Z,102291.84
2022-12-03T07:22:12.188Z,102267.00
2022-12-03T07:27:14.146Z,102287.84
2022-12-03T07:32:16.194Z,102287.25
2022-12-03T07:37:22.854Z,102289.28
2022-12-03T07:42:25.568Z,102298.16
2022-12-03T07:47:27.689Z,102290.63
2022-12-03T07:52:30.132Z,102284.69
2022-12-03T07:57:32.635Z,102285.25
2022-12-03T08:02:34.729Z,102276.19
2022-12-03T08:07:37.064Z,102284.69
2022-12-03T08:12:45.803Z,102281.03
2022-12-03T08:17:54.878Z,102287.34
2022-12-03T08:22:57.612Z,102266.91
2022-12-03T08:28:26.703Z,102281.88
2022-12-03T08:33:39.090Z,102272.41
2022-12-03T08:38:45.534Z,102280.88
2022-12-03T08:43:47.797Z,102271.34
2022-12-03T08:48:49.859Z,102269.56
2022-12-03T08:54:03.507Z,102253.72
2022-12-03T08:59:24.184Z,102272.59
2022-12-03T09:04:36.180Z,102270.34
2022-12-03T09:09:38.387Z,102280.16
2022-12-03T09:14:40.352Z,102284.59
2022-12-03T09:19:46.287Z,102270.00
2022-12-03T09:24:48.607Z,102273.44
2022-12-03T09:29:50.976Z,102281.19
2022-12-03T09:34:55.197Z,102273.44
2022-12-03T09:39:57.455Z,102272.53
2022-12-03T09:44:59.776Z,102263.06
2022-12-03T09:50:02.272Z,102270.75
2022-12-03T09:55:13.593Z,102274.19
2022-12-03T10:00:21.899Z,102273.28
2022-12-03T10:05:24.340Z,102266.38
2022-12-03T10:10:26.505Z,102235.41
2022-12-03T10:15:33.195Z,102263.63
2022-12-03T10:20:35.344Z,102268.88
2022-12-03T10:25:51.566Z,102259.34
2022-12-03T10:30:57.324Z,102261.03
2022-12-03T10:36:21.720Z,102271.28
2022-12-03T10:41:29.316Z,102270.53
2022-12-03T10:46:31.384Z,102264.53
2022-12-03T10:51:33.582Z,102267.25
2022-12-03T10:56:36.153Z,102270.69
2022-12-03T11:01:38.244Z,102264.72
2022-12-03T11:06:40.353Z,102270.75
2022-12-03T11:11:42.386Z,102275.00
2022-12-03T11:16:47.121Z,102273.22
2022-12-03T11:22:07.147Z,102268.03
2022-12-03T11:27:09.142Z,102259.41
2022-12-03T11:32:11.181Z,102262.81
2022-12-03T11:37:21.752Z,102271.56
2022-12-03T11:42:26.198Z,102269.00
2022-12-03T11:47:29.173Z,102263.84
2022-12-03T11:52:40.339Z,102263.84
2022-12-03T11:57:43.493Z,102262.13
2022-12-03T12:02:46.358Z,102269.03
2022-12-03T12:07:49.489Z,102273.34
2022-12-03T12:12:55.074Z,102242.41
2022-12-03T12:17:57.460Z,102270.75
2022-12-03T12:23:28.144Z,102271.63
2022-12-03T12:28:30.124Z,102278.50
2022-12-03T12:33:34.627Z,102270.75
2022-12-03T12:38:36.719Z,102273.34
2022-12-03T12:43:39.662Z,102276.78
2022-12-03T12:48:41.664Z,102274.19
2022-12-03T12:53:43.649Z,102266.44
2022-12-03T12:58:46.062Z,102278.50
2022-12-03T13:03:51.282Z,102269.88
2022-12-03T13:08:54.449Z,102270.72
2022-12-03T13:13:56.416Z,102262.13
2022-12-03T13:18:59.960Z,102273.28
2022-12-03T13:24:02.398Z,102273.28
2022-12-03T13:29:14.752Z,102274.06
2022-12-03T13:34:21.242Z,102248.31
2022-12-03T13:39:28.980Z,102269.72
2022-12-03T13:44:32.412Z,102282.63
2022-12-03T13:49:34.907Z,102277.41
2022-12-03T13:54:39.403Z,102282.59
2022-12-03T13:59:41.514Z,102271.41
2022-12-03T14:04:44.500Z,102282.59
2022-12-03T14:09:46.621Z,102289.44
2022-12-03T14:14:48.636Z,102282.56
2022-12-03T14:19:50.734Z,102271.31
2022-12-03T14:24:53.666Z,102276.47
2022-12-03T14:29:56.035Z,102297.16
2022-12-03T14:34:58.279Z,102289.31
2022-12-03T14:40:00.317Z,102285.84
2022-12-03T14:45:02.633Z,102291.88
2022-12-03T14:50:06.052Z,102293.63
2022-12-03T14:55:08.444Z,102291.00
2022-12-03T15:00:12.779Z,102291.84
2022-12-03T15:05:14.905Z,102292.72
2022-12-03T15:10:16.989Z,102283.25
2022-12-03T15:15:19.821Z,102288.41
2022-12-03T15:20:21.966Z,102297.03
2022-12-03T15:25:27.017Z,102306.50
2022-12-03T15:30:29.583Z,102297.84
2022-12-03T15:35:31.735Z,102293.53
2022-12-03T15:40:35.476Z,102303.81
2022-12-03T15:45:37.586Z,102297.78
2022-12-03T15:50:40.368Z,102297.81
2022-12-03T15:55:42.649Z,102286.59
2022-12-03T16:00:44.701Z,102286.66
2022-12-03T16:05:46.798Z,102303.81
2022-12-03T16:10:49.863Z,102294.34
2022-12-03T16:15:51.977Z,102307.28
2022-12-03T16:20:54.136Z,102303.84
2022-12-03T16:25:56.150Z,102294.34
2022-12-03T16:30:58.213Z,102302.06
2022-12-03T16:36:00.372Z,102305.53
2022-12-03T16:41:02.500Z,102314.16
2022-12-03T16:46:17.358Z,102340.06
2022-12-03T16:51:19.787Z,102366.91
2022-12-03T16:56:22.958Z,102322.25
2022-12-03T17:01:25.102Z,102320.53
2022-12-03T17:06:27.149Z,102328.34
2022-12-03T17:11:29.382Z,102330.03
2022-12-03T17:16:31.626Z,102349.91
2022-12-03T17:21:35.230Z,102349.09
2022-12-03T17:26:37.499Z,102330.16
2022-12-03T17:31:42.256Z,102320.66
2022-12-03T17:36:44.777Z,102351.72
2022-12-03T17:41:46.814Z,102345.69
2022-12-03T17:46:49.529Z,102358.59
2022-12-03T17:51:51.673Z,102345.66
2022-12-03T17:56:53.702Z,102374.13
2022-12-03T18:01:55.762Z,102353.44
2022-12-03T18:07:02.148Z,102329.38
2022-12-03T18:12:04.748Z,102345.69
2022-12-03T18:17:06.882Z,102345.69
2022-12-03T18:22:09.284Z,102331.97
2022-12-03T18:27:11.381Z,102338.81
2022-12-03T18:32:27.809Z,102344.84
2022-12-03T18:37:33.153Z,102349.16
2022-12-03T18:42:35.208Z,102350.88
2022-12-03T18:47:38.277Z,102365.50
2022-12-03T18:52:40.583Z,102362.06
2022-12-03T18:57:42.695Z,102352.63
2022-12-03T19:03:02.291Z,102364.69
2022-12-03T19:08:14.025Z,102359.53
2022-12-03T19:13:16.208Z,102373.31
2022-12-03T19:18:18.219Z,102375.88
2022-12-03T19:23:20.528Z,102382.78
2022-12-03T19:28:22.512Z,102370.72
2022-12-03T19:33:28.572Z,102390.53
2022-12-03T19:38:31.805Z,102387.06
2022-12-03T19:43:36.601Z,102377.59
2022-12-03T19:48:40.571Z,102378.47
2022-12-03T19:53:43.243Z,102373.31
2022-12-03T19:58:46.799Z,102375.88
2022-12-03T20:03:51.127Z,102375.03
2022-12-03T20:08:58.274Z,102376.72
2022-12-03T20:14:07.704Z,102371.53
2022-12-03T20:19:12.462Z,102360.34
2022-12-03T20:24:16.497Z,102374.13
2022-12-03T20:29:18.535Z,102366.41
2022-12-03T20:34:20.575Z,102385.31
2022-12-03T20:39:22.600Z,102383.59
2022-12-03T20:44:24.568Z,102379.31
2022-12-03T20:49:26.597Z,102369.81
2022-12-03T20:54:28.565Z,102362.94
2022-12-03T20:59:30.705Z,102381.84
2022-12-03T21:04:33.792Z,102369.81
2022-12-03T21:09:35.843Z,102365.50
2022-12-03T21:14:37.859Z,102363.75
2022-12-03T21:19:39.980Z,102372.38
2022-12-03T21:24:42.973Z,102353.44
2022-12-03T21:29:45.062Z,102367.22
2022-12-03T21:34:47.080Z,102358.56
2022-12-03T21:39:49.285Z,102381.88
2022-12-03T21:44:51.485Z,102368.09
2022-12-03T21:49:53.930Z,102370.69
2022-12-03T21:54:56.115Z,102354.31
2022-12-03T21:59:58.271Z,102353.44
2022-12-03T22:05:00.303Z,102371.53
2022-12-03T22:10:02.833Z,102362.94
2022-12-03T22:15:05.908Z,102334.50
2022-12-03T22:20:08.633Z,102345.66
2022-12-03T22:25:10.722Z,102361.97
2022-12-03T22:30:12.932Z,102364.56
2022-12-03T22:35:15.027Z,102361.97
2022-12-03T22:40:17.194Z,102364.59
2022-12-03T22:45:19.286Z,102356.00
2022-12-03T22:50:21.341Z,102357.72
2022-12-03T22:55:23.508Z,102354.28
2022-12-03T23:00:31.894Z,102332.81
2022-12-03T23:05:37.065Z,102357.75
2022-12-03T23:10:42.312Z,102368.09
2022-12-03T23:15:46.513Z,102364.69
2022-12-03T23:20:53.975Z,102358.66
2022-12-03T23:26:02.039Z,102360.38
2022-12-03T23:31:05.591Z,102368.13
2022-12-03T23:36:08.060Z,102372.44
2022-12-03T23:41:13.316Z,102375.00
2022-12-03T23:46:19.512Z,102375.88
2022-12-03T23:51:26.810Z,102380.22
2022-12-03T23:56:30.779Z,102376.75
